sensor_id;sensor_type;location;lat;lon;timestamp;P1;P2;P0
50587;PMS7003;70782;50.514;30.816;2024-01-15T00:00:14;26.10;24.20;14.20
50587;PMS7003;70782;50.514;30.816;2024-01-15T00:01:18;25.80;24.10;15.30
50587;PMS7003;70782;50.514;30.816;2024-01-15T00:02:22;28.70;23.80;15.40
50587;PMS7003;70782;50.514;30.816;2024-01-15T00:03:24;23.30;22.40;15.20
50587;PMS7003;70782;50.514;30.816;2024-01-15T00:04:27;21.60;19.90;14.60
50587;PMS7003;70782;50.514;30.816;2024-01-15T00:05:29;24.10;21.60;13.50
50587;PMS7003;70782;50.514;30.816;2024-01-15T00:06:31;23.10;20.60;14.60
50587;PMS7003;70782;50.514;30.816;2024-01-15T00:07:35;23.30;21.80;15.00
50587;PMS7003;70782;50.514;30.816;2024-01-15T00:08:37;22.36;21.64;14.36
50587;PMS7003;70782;50.514;30.816;2024-01-15T00:09:39;24.60;20.20;13.30
50587;PMS7003;70782;50.514;30.816;2024-01-15T00:10:42;25.36;22.45;15.09
50587;PMS7003;70782;50.514;30.816;2024-01-15T00:11:44;22.80;21.70;12.60
50587;PMS7003;70782;50.514;30.816;2024-01-15T00:12:46;22.70;22.00;14.00
50587;PMS7003;70782;50.514;30.816;2024-01-15T00:13:49;26.20;23.80;16.00
50587;PMS7003;70782;50.514;30.816;2024-01-15T00:14:51;26.56;22.44;14.44
50587;PMS7003;70782;50.514;30.816;2024-01-15T00:15:53;26.50;20.90;14.40
50587;PMS7003;70782;50.514;30.816;2024-01-15T00:16:55;21.80;20.20;13.50
50587;PMS7003;70782;50.514;30.816;2024-01-15T00:17:57;24.70;22.00;14.80
50587;PMS7003;70782;50.514;30.816;2024-01-15T00:19:00;24.40;21.20;14.10
50587;PMS7003;70782;50.514;30.816;2024-01-15T00:20:02;24.30;22.00;15.30
50587;PMS7003;70782;50.514;30.816;2024-01-15T00:21:05;27.20;23.50;14.20
50587;PMS7003;70782;50.514;30.816;2024-01-15T00:22:07;23.00;21.20;15.60
50587;PMS7003;70782;50.514;30.816;2024-01-15T00:23:09;29.50;27.50;17.30
50587;PMS7003;70782;50.514;30.816;2024-01-15T00:24:11;27.22;24.11;15.33
50587;PMS7003;70782;50.514;30.816;2024-01-15T00:25:13;30.80;26.20;15.30
50587;PMS7003;70782;50.514;30.816;2024-01-15T00:26:16;26.45;24.45;16.64
50587;PMS7003;70782;50.514;30.816;2024-01-15T00:27:18;28.90;25.70;16.00
50587;PMS7003;70782;50.514;30.816;2024-01-15T00:28:21;27.70;25.60;15.70
50587;PMS7003;70782;50.514;30.816;2024-01-15T00:29:23;25.90;24.70;17.20
50587;PMS7003;70782;50.514;30.816;2024-01-15T00:30:25;26.50;23.40;15.30
50587;PMS7003;70782;50.514;30.816;2024-01-15T00:31:28;22.20;21.80;14.30
50587;PMS7003;70782;50.514;30.816;2024-01-15T00:32:31;24.91;21.64;14.73
50587;PMS7003;70782;50.514;30.816;2024-01-15T00:33:33;25.90;22.80;14.50
50587;PMS7003;70782;50.514;30.816;2024-01-15T00:34:35;22.10;20.40;13.70
50587;PMS7003;70782;50.514;30.816;2024-01-15T00:35:37;22.10;19.30;12.60
50587;PMS7003;70782;50.514;30.816;2024-01-15T00:36:41;22.60;21.00;14.00
50587;PMS7003;70782;50.514;30.816;2024-01-15T00:37:43;19.60;19.00;12.00
50587;PMS7003;70782;50.514;30.816;2024-01-15T00:38:46;20.00;17.80;12.80
50587;PMS7003;70782;50.514;30.816;2024-01-15T00:39:48;24.80;21.70;14.10
50587;PMS7003;70782;50.514;30.816;2024-01-15T00:40:50;24.60;20.90;13.40
50587;PMS7003;70782;50.514;30.816;2024-01-15T00:41:52;24.40;21.10;12.50
50587;PMS7003;70782;50.514;30.816;2024-01-15T00:42:54;25.20;21.60;14.10
50587;PMS7003;70782;50.514;30.816;2024-01-15T00:43:57;20.00;17.40;12.10
50587;PMS7003;70782;50.514;30.816;2024-01-15T00:44:59;23.00;22.40;13.60
50587;PMS7003;70782;50.514;30.816;2024-01-15T00:46:02;20.20;20.10;13.90
50587;PMS7003;70782;50.514;30.816;2024-01-15T00:47:05;23.10;21.90;13.40
50587;PMS7003;70782;50.514;30.816;2024-01-15T00:48:07;8.50;7.10;0.70
50587;PMS7003;70782;50.514;30.816;2024-01-15T00:49:09;23.50;21.70;15.20
50587;PMS7003;70782;50.514;30.816;2024-01-15T00:50:12;27.60;23.70;16.00
50587;PMS7003;70782;50.514;30.816;2024-01-15T00:51:15;26.10;23.00;15.80
50587;PMS7003;70782;50.514;30.816;2024-01-15T00:52:17;29.70;27.20;17.50
50587;PMS7003;70782;50.514;30.816;2024-01-15T00:53:19;28.10;27.20;17.20
50587;PMS7003;70782;50.514;30.816;2024-01-15T00:54:21;24.50;22.80;15.80
50587;PMS7003;70782;50.514;30.816;2024-01-15T00:55:25;25.70;23.30;15.60
50587;PMS7003;70782;50.514;30.816;2024-01-15T00:56:30;24.40;23.90;15.70
50587;PMS7003;70782;50.514;30.816;2024-01-15T00:57:32;24.00;22.70;16.00
50587;PMS7003;70782;50.514;30.816;2024-01-15T00:58:34;24.20;23.00;16.00
50587;PMS7003;70782;50.514;30.816;2024-01-15T00:59:37;22.10;21.80;16.00
50587;PMS7003;70782;50.514;30.816;2024-01-15T01:00:39;17.70;16.30;9.20
50587;PMS7003;70782;50.514;30.816;2024-01-15T01:01:41;23.40;22.70;14.70
50587;PMS7003;70782;50.514;30.816;2024-01-15T01:02:44;24.40;23.40;15.40
50587;PMS7003;70782;50.514;30.816;2024-01-15T01:03:46;22.50;18.30;12.60
50587;PMS7003;70782;50.514;30.816;2024-01-15T01:04:48;24.10;20.90;13.40
50587;PMS7003;70782;50.514;30.816;2024-01-15T01:05:51;21.80;19.90;14.40
50587;PMS7003;70782;50.514;30.816;2024-01-15T01:06:53;19.00;18.10;11.60
50587;PMS7003;70782;50.514;30.816;2024-01-15T01:07:55;26.10;24.90;15.40
50587;PMS7003;70782;50.514;30.816;2024-01-15T01:08:57;26.80;24.70;15.80
50587;PMS7003;70782;50.514;30.816;2024-01-15T01:10:00;24.60;23.60;15.50
50587;PMS7003;70782;50.514;30.816;2024-01-15T01:11:02;24.50;22.30;15.30
50587;PMS7003;70782;50.514;30.816;2024-01-15T01:12:04;27.20;22.50;15.40
50587;PMS7003;70782;50.514;30.816;2024-01-15T01:13:08;23.10;22.40;14.80
50587;PMS7003;70782;50.514;30.816;2024-01-15T01:14:10;26.60;23.10;14.20
50587;PMS7003;70782;50.514;30.816;2024-01-15T01:15:12;24.50;22.30;14.50
50587;PMS7003;70782;50.514;30.816;2024-01-15T01:16:16;21.80;21.40;13.30
50587;PMS7003;70782;50.514;30.816;2024-01-15T01:17:18;27.00;24.50;15.00
50587;PMS7003;70782;50.514;30.816;2024-01-15T01:18:20;26.60;23.70;16.50
50587;PMS7003;70782;50.514;30.816;2024-01-15T01:19:23;27.80;24.10;15.30
50587;PMS7003;70782;50.514;30.816;2024-01-15T01:20:26;18.10;16.80;9.00
50587;PMS7003;70782;50.514;30.816;2024-01-15T01:21:28;24.70;23.00;14.90
50587;PMS7003;70782;50.514;30.816;2024-01-15T01:22:30;23.10;20.30;14.20
50587;PMS7003;70782;50.514;30.816;2024-01-15T01:23:32;23.60;23.30;13.90
50587;PMS7003;70782;50.514;30.816;2024-01-15T01:24:34;26.50;23.50;14.00
50587;PMS7003;70782;50.514;30.816;2024-01-15T01:25:36;22.70;21.40;14.60
50587;PMS7003;70782;50.514;30.816;2024-01-15T01:26:39;24.00;23.50;15.20
50587;PMS7003;70782;50.514;30.816;2024-01-15T01:27:41;21.70;20.30;12.70
50587;PMS7003;70782;50.514;30.816;2024-01-15T01:28:43;22.10;20.40;13.90
50587;PMS7003;70782;50.514;30.816;2024-01-15T01:29:45;25.10;24.00;15.30
50587;PMS7003;70782;50.514;30.816;2024-01-15T01:30:48;23.50;22.30;15.00
50587;PMS7003;70782;50.514;30.816;2024-01-15T01:31:50;26.40;25.20;16.40
50587;PMS7003;70782;50.514;30.816;2024-01-15T01:32:52;23.60;20.10;15.00
50587;PMS7003;70782;50.514;30.816;2024-01-15T01:33:54;21.40;20.40;15.30
50587;PMS7003;70782;50.514;30.816;2024-01-15T01:34:57;29.40;24.30;15.60
50587;PMS7003;70782;50.514;30.816;2024-01-15T01:35:59;23.40;22.00;12.80
50587;PMS7003;70782;50.514;30.816;2024-01-15T01:37:01;28.00;23.90;15.60
50587;PMS7003;70782;50.514;30.816;2024-01-15T01:38:03;21.70;20.80;13.20
50587;PMS7003;70782;50.514;30.816;2024-01-15T01:39:06;25.70;19.60;13.60
50587;PMS7003;70782;50.514;30.816;2024-01-15T01:40:10;25.80;23.30;14.90
50587;PMS7003;70782;50.514;30.816;2024-01-15T01:41:13;25.10;23.40;15.90
50587;PMS7003;70782;50.514;30.816;2024-01-15T01:42:15;24.80;22.80;14.10
50587;PMS7003;70782;50.514;30.816;2024-01-15T01:43:17;29.90;24.10;15.30
50587;PMS7003;70782;50.514;30.816;2024-01-15T01:44:20;20.50;19.10;13.10
50587;PMS7003;70782;50.514;30.816;2024-01-15T01:45:23;23.50;20.60;12.70
50587;PMS7003;70782;50.514;30.816;2024-01-15T01:46:27;21.50;18.90;12.70
50587;PMS7003;70782;50.514;30.816;2024-01-15T01:47:30;22.45;21.00;14.09
50587;PMS7003;70782;50.514;30.816;2024-01-15T01:48:32;19.80;17.30;12.80
50587;PMS7003;70782;50.514;30.816;2024-01-15T01:49:35;23.10;21.00;13.60
50587;PMS7003;70782;50.514;30.816;2024-01-15T01:50:39;22.50;21.20;13.90
50587;PMS7003;70782;50.514;30.816;2024-01-15T01:51:41;28.90;20.50;14.60
50587;PMS7003;70782;50.514;30.816;2024-01-15T01:52:43;23.80;21.50;15.00
50587;PMS7003;70782;50.514;30.816;2024-01-15T01:53:45;25.70;23.30;16.80
50587;PMS7003;70782;50.514;30.816;2024-01-15T01:54:48;24.40;20.70;14.30
50587;PMS7003;70782;50.514;30.816;2024-01-15T01:55:50;21.90;20.00;13.50
50587;PMS7003;70782;50.514;30.816;2024-01-15T01:56:53;26.50;22.10;14.50
50587;PMS7003;70782;50.514;30.816;2024-01-15T01:57:55;17.00;15.10;10.10
50587;PMS7003;70782;50.514;30.816;2024-01-15T01:58:57;26.20;23.10;14.40
50587;PMS7003;70782;50.514;30.816;2024-01-15T02:00:03;24.10;20.80;13.40
50587;PMS7003;70782;50.514;30.816;2024-01-15T02:01:08;26.20;22.90;16.20
50587;PMS7003;70782;50.514;30.816;2024-01-15T02:02:10;22.50;21.90;15.40
50587;PMS7003;70782;50.514;30.816;2024-01-15T02:03:13;27.40;24.80;15.90
50587;PMS7003;70782;50.514;30.816;2024-01-15T02:04:16;21.30;20.30;15.30
50587;PMS7003;70782;50.514;30.816;2024-01-15T02:05:20;23.40;20.00;13.70
50587;PMS7003;70782;50.514;30.816;2024-01-15T02:06:25;24.30;20.30;14.80
50587;PMS7003;70782;50.514;30.816;2024-01-15T02:07:27;23.10;19.10;13.20
50587;PMS7003;70782;50.514;30.816;2024-01-15T02:08:30;25.78;21.67;15.89
50587;PMS7003;70782;50.514;30.816;2024-01-15T02:09:32;26.80;21.50;13.90
50587;PMS7003;70782;50.514;30.816;2024-01-15T02:10:34;25.80;23.40;14.90
50587;PMS7003;70782;50.514;30.816;2024-01-15T02:11:37;25.90;23.80;14.90
50587;PMS7003;70782;50.514;30.816;2024-01-15T02:12:39;25.40;23.00;14.90
50587;PMS7003;70782;50.514;30.816;2024-01-15T02:13:41;23.10;22.10;15.20
50587;PMS7003;70782;50.514;30.816;2024-01-15T02:14:44;20.40;20.00;14.50
50587;PMS7003;70782;50.514;30.816;2024-01-15T02:15:46;27.30;24.40;14.60
50587;PMS7003;70782;50.514;30.816;2024-01-15T02:16:49;25.91;23.64;14.18
50587;PMS7003;70782;50.514;30.816;2024-01-15T02:18:02;21.30;19.20;13.90
50587;PMS7003;70782;50.514;30.816;2024-01-15T02:19:06;22.40;19.50;13.50
50587;PMS7003;70782;50.514;30.816;2024-01-15T02:20:10;22.90;21.10;14.00
50587;PMS7003;70782;50.514;30.816;2024-01-15T02:21:12;21.55;19.91;13.82
50587;PMS7003;70782;50.514;30.816;2024-01-15T02:22:14;20.60;18.10;12.30
50587;PMS7003;70782;50.514;30.816;2024-01-15T02:23:17;27.00;24.20;14.40
50587;PMS7003;70782;50.514;30.816;2024-01-15T02:24:19;23.90;21.40;13.80
50587;PMS7003;70782;50.514;30.816;2024-01-15T02:25:23;22.80;22.50;14.40
50587;PMS7003;70782;50.514;30.816;2024-01-15T02:26:26;24.60;22.30;14.00
50587;PMS7003;70782;50.514;30.816;2024-01-15T02:27:28;26.70;25.10;13.90
50587;PMS7003;70782;50.514;30.816;2024-01-15T02:28:30;21.80;19.60;14.80
50587;PMS7003;70782;50.514;30.816;2024-01-15T02:29:34;24.40;19.20;13.30
50587;PMS7003;70782;50.514;30.816;2024-01-15T02:30:38;22.70;20.90;13.70
50587;PMS7003;70782;50.514;30.816;2024-01-15T02:31:42;22.70;20.30;15.20
50587;PMS7003;70782;50.514;30.816;2024-01-15T02:32:44;21.30;20.10;13.10
50587;PMS7003;70782;50.514;30.816;2024-01-15T02:33:47;22.20;20.20;15.70
50587;PMS7003;70782;50.514;30.816;2024-01-15T02:34:50;20.60;18.00;12.40
50587;PMS7003;70782;50.514;30.816;2024-01-15T02:35:52;22.30;20.70;13.00
50587;PMS7003;70782;50.514;30.816;2024-01-15T02:36:55;24.80;20.20;13.50
50587;PMS7003;70782;50.514;30.816;2024-01-15T02:37:57;21.30;20.40;13.40
50587;PMS7003;70782;50.514;30.816;2024-01-15T02:38:59;21.30;17.80;10.50
50587;PMS7003;70782;50.514;30.816;2024-01-15T02:40:01;21.00;19.50;12.90
50587;PMS7003;70782;50.514;30.816;2024-01-15T02:41:04;23.90;21.40;14.20
50587;PMS7003;70782;50.514;30.816;2024-01-15T02:42:06;20.80;19.70;12.20
50587;PMS7003;70782;50.514;30.816;2024-01-15T02:43:08;21.10;21.10;14.90
50587;PMS7003;70782;50.514;30.816;2024-01-15T02:44:10;22.40;19.70;13.30
50587;PMS7003;70782;50.514;30.816;2024-01-15T02:45:13;13.30;12.00;2.60
50587;PMS7003;70782;50.514;30.816;2024-01-15T02:46:16;22.70;21.60;14.70
50587;PMS7003;70782;50.514;30.816;2024-01-15T02:47:19;24.80;22.20;14.30
50587;PMS7003;70782;50.514;30.816;2024-01-15T02:48:21;22.80;22.20;14.40
50587;PMS7003;70782;50.514;30.816;2024-01-15T02:49:23;24.00;21.20;12.70
50587;PMS7003;70782;50.514;30.816;2024-01-15T02:50:26;24.70;21.50;14.30
50587;PMS7003;70782;50.514;30.816;2024-01-15T02:51:28;24.33;21.78;13.56
50587;PMS7003;70782;50.514;30.816;2024-01-15T02:52:30;26.20;23.10;15.10
50587;PMS7003;70782;50.514;30.816;2024-01-15T02:53:32;21.20;19.30;13.10
50587;PMS7003;70782;50.514;30.816;2024-01-15T02:54:34;20.80;20.80;13.10
50587;PMS7003;70782;50.514;30.816;2024-01-15T02:55:36;21.20;19.30;13.00
50587;PMS7003;70782;50.514;30.816;2024-01-15T02:56:39;24.70;20.70;13.70
50587;PMS7003;70782;50.514;30.816;2024-01-15T02:57:41;21.70;21.20;13.00
50587;PMS7003;70782;50.514;30.816;2024-01-15T02:58:43;28.70;26.90;17.10
50587;PMS7003;70782;50.514;30.816;2024-01-15T02:59:45;32.00;28.40;18.30
50587;PMS7003;70782;50.514;30.816;2024-01-15T03:00:48;30.40;27.90;15.50
50587;PMS7003;70782;50.514;30.816;2024-01-15T03:01:52;36.90;31.90;19.10
50587;PMS7003;70782;50.514;30.816;2024-01-15T03:02:54;39.50;35.20;22.20
50587;PMS7003;70782;50.514;30.816;2024-01-15T03:03:57;35.20;31.10;20.10
50587;PMS7003;70782;50.514;30.816;2024-01-15T03:04:59;35.90;30.70;19.20
50587;PMS7003;70782;50.514;30.816;2024-01-15T03:06:02;30.00;28.00;17.40
50587;PMS7003;70782;50.514;30.816;2024-01-15T03:07:04;26.40;25.10;16.60
50587;PMS7003;70782;50.514;30.816;2024-01-15T03:08:06;27.40;25.30;16.90
50587;PMS7003;70782;50.514;30.816;2024-01-15T03:09:08;28.40;27.60;18.60
50587;PMS7003;70782;50.514;30.816;2024-01-15T03:10:12;25.40;23.90;15.10
50587;PMS7003;70782;50.514;30.816;2024-01-15T03:11:14;31.20;29.00;18.80
50587;PMS7003;70782;50.514;30.816;2024-01-15T03:12:16;29.40;26.10;17.80
50587;PMS7003;70782;50.514;30.816;2024-01-15T03:13:19;2.20;1.00;0.40
50587;PMS7003;70782;50.514;30.816;2024-01-15T03:14:21;26.10;24.10;17.50
50587;PMS7003;70782;50.514;30.816;2024-01-15T03:15:23;28.00;24.90;17.50
50587;PMS7003;70782;50.514;30.816;2024-01-15T03:16:26;24.09;23.45;15.27
50587;PMS7003;70782;50.514;30.816;2024-01-15T03:17:28;23.20;21.00;14.00
50587;PMS7003;70782;50.514;30.816;2024-01-15T03:18:30;2.50;2.20;0.90
50587;PMS7003;70782;50.514;30.816;2024-01-15T03:19:34;26.80;24.60;16.80
50587;PMS7003;70782;50.514;30.816;2024-01-15T03:20:37;28.80;26.40;16.80
50587;PMS7003;70782;50.514;30.816;2024-01-15T03:21:39;28.10;27.20;18.20
50587;PMS7003;70782;50.514;30.816;2024-01-15T03:22:41;30.60;28.90;18.20
50587;PMS7003;70782;50.514;30.816;2024-01-15T03:23:44;26.60;25.50;16.30
50587;PMS7003;70782;50.514;30.816;2024-01-15T03:24:46;32.40;27.50;16.90
50587;PMS7003;70782;50.514;30.816;2024-01-15T03:25:48;26.60;25.70;16.20
50587;PMS7003;70782;50.514;30.816;2024-01-15T03:26:50;24.40;23.90;15.50
50587;PMS7003;70782;50.514;30.816;2024-01-15T03:27:52;28.80;27.10;17.20
50587;PMS7003;70782;50.514;30.816;2024-01-15T03:28:55;24.56;23.00;15.00
50587;PMS7003;70782;50.514;30.816;2024-01-15T03:29:57;26.80;24.80;17.20
50587;PMS7003;70782;50.514;30.816;2024-01-15T03:30:59;29.80;28.30;17.30
50587;PMS7003;70782;50.514;30.816;2024-01-15T03:32:02;29.60;27.80;18.80
50587;PMS7003;70782;50.514;30.816;2024-01-15T03:33:04;31.40;28.30;19.60
50587;PMS7003;70782;50.514;30.816;2024-01-15T03:34:06;32.00;28.60;19.80
50587;PMS7003;70782;50.514;30.816;2024-01-15T03:35:08;29.40;28.80;19.50
50587;PMS7003;70782;50.514;30.816;2024-01-15T03:36:11;26.20;24.70;16.50
50587;PMS7003;70782;50.514;30.816;2024-01-15T03:37:13;33.00;30.30;21.80
50587;PMS7003;70782;50.514;30.816;2024-01-15T03:38:15;33.70;31.30;19.00
50587;PMS7003;70782;50.514;30.816;2024-01-15T03:39:17;34.90;29.80;22.00
50587;PMS7003;70782;50.514;30.816;2024-01-15T03:40:21;32.50;30.10;20.60
50587;PMS7003;70782;50.514;30.816;2024-01-15T03:41:25;28.20;27.90;19.10
50587;PMS7003;70782;50.514;30.816;2024-01-15T03:42:27;29.80;28.70;18.50
50587;PMS7003;70782;50.514;30.816;2024-01-15T03:43:29;23.60;22.10;13.60
50587;PMS7003;70782;50.514;30.816;2024-01-15T03:44:31;25.50;24.30;17.20
50587;PMS7003;70782;50.514;30.816;2024-01-15T03:45:33;32.00;29.30;19.10
50587;PMS7003;70782;50.514;30.816;2024-01-15T03:46:35;24.50;23.00;13.70
50587;PMS7003;70782;50.514;30.816;2024-01-15T03:47:37;24.70;24.00;15.60
50587;PMS7003;70782;50.514;30.816;2024-01-15T03:48:40;22.70;20.70;15.00
50587;PMS7003;70782;50.514;30.816;2024-01-15T03:49:42;24.10;22.70;16.30
50587;PMS7003;70782;50.514;30.816;2024-01-15T03:50:44;20.10;18.10;12.20
50587;PMS7003;70782;50.514;30.816;2024-01-15T03:51:47;21.10;20.80;13.90
50587;PMS7003;70782;50.514;30.816;2024-01-15T03:52:49;12.60;8.80;3.30
50587;PMS7003;70782;50.514;30.816;2024-01-15T03:53:51;20.00;16.80;10.40
50587;PMS7003;70782;50.514;30.816;2024-01-15T03:54:53;20.00;18.10;12.50
50587;PMS7003;70782;50.514;30.816;2024-01-15T03:55:55;20.50;18.50;12.70
50587;PMS7003;70782;50.514;30.816;2024-01-15T03:56:58;24.50;19.60;13.70
50587;PMS7003;70782;50.514;30.816;2024-01-15T03:58:00;21.30;19.70;13.70
50587;PMS7003;70782;50.514;30.816;2024-01-15T03:59:02;24.70;22.40;14.90
50587;PMS7003;70782;50.514;30.816;2024-01-15T04:00:05;24.30;24.10;15.90
50587;PMS7003;70782;50.514;30.816;2024-01-15T04:01:09;27.50;25.50;15.30
50587;PMS7003;70782;50.514;30.816;2024-01-15T04:02:12;26.70;25.20;14.30
50587;PMS7003;70782;50.514;30.816;2024-01-15T04:03:14;25.80;25.00;17.80
50587;PMS7003;70782;50.514;30.816;2024-01-15T04:04:17;30.30;27.40;19.70
50587;PMS7003;70782;50.514;30.816;2024-01-15T04:05:20;29.40;27.90;17.10
50587;PMS7003;70782;50.514;30.816;2024-01-15T04:06:22;29.18;27.64;18.73
50587;PMS7003;70782;50.514;30.816;2024-01-15T04:07:25;32.40;28.50;18.70
50587;PMS7003;70782;50.514;30.816;2024-01-15T04:08:27;35.80;32.30;19.90
50587;PMS7003;70782;50.514;30.816;2024-01-15T04:09:29;36.40;32.00;21.90
50587;PMS7003;70782;50.514;30.816;2024-01-15T04:10:31;44.90;37.80;24.00
50587;PMS7003;70782;50.514;30.816;2024-01-15T04:11:34;48.80;39.50;23.00
50587;PMS7003;70782;50.514;30.816;2024-01-15T04:12:36;52.67;42.89;25.00
50587;PMS7003;70782;50.514;30.816;2024-01-15T04:13:38;59.78;45.33;24.44
50587;PMS7003;70782;50.514;30.816;2024-01-15T04:14:42;55.30;42.40;25.00
50587;PMS7003;70782;50.514;30.816;2024-01-15T04:15:44;51.10;42.40;26.60
50587;PMS7003;70782;50.514;30.816;2024-01-15T04:16:47;45.60;40.80;26.50
50587;PMS7003;70782;50.514;30.816;2024-01-15T04:17:49;52.00;42.33;25.33
50587;PMS7003;70782;50.514;30.816;2024-01-15T04:18:51;54.22;44.00;28.00
50587;PMS7003;70782;50.514;30.816;2024-01-15T04:19:54;52.50;40.90;25.80
50587;PMS7003;70782;50.514;30.816;2024-01-15T04:20:57;46.45;38.18;24.27
50587;PMS7003;70782;50.514;30.816;2024-01-15T04:21:59;40.10;37.50;24.30
50587;PMS7003;70782;50.514;30.816;2024-01-15T04:23:01;40.11;35.44;21.33
50587;PMS7003;70782;50.514;30.816;2024-01-15T04:24:03;48.00;41.10;25.00
50587;PMS7003;70782;50.514;30.816;2024-01-15T04:25:06;42.60;36.60;23.10
50587;PMS7003;70782;50.514;30.816;2024-01-15T04:26:09;42.40;39.40;23.20
50587;PMS7003;70782;50.514;30.816;2024-01-15T04:27:11;46.90;40.30;25.30
50587;PMS7003;70782;50.514;30.816;2024-01-15T04:28:13;45.00;38.90;25.20
50587;PMS7003;70782;50.514;30.816;2024-01-15T04:29:15;48.60;39.40;26.00
50587;PMS7003;70782;50.514;30.816;2024-01-15T04:30:19;52.10;42.10;26.00
50587;PMS7003;70782;50.514;30.816;2024-01-15T04:31:25;53.60;44.50;27.50
50587;PMS7003;70782;50.514;30.816;2024-01-15T04:32:28;50.40;42.10;27.60
50587;PMS7003;70782;50.514;30.816;2024-01-15T04:33:30;52.10;43.30;28.00
50587;PMS7003;70782;50.514;30.816;2024-01-15T04:34:32;52.60;42.50;27.40
50587;PMS7003;70782;50.514;30.816;2024-01-15T04:35:34;51.80;42.60;26.60
50587;PMS7003;70782;50.514;30.816;2024-01-15T04:36:39;46.70;40.40;23.70
50587;PMS7003;70782;50.514;30.816;2024-01-15T04:37:42;40.30;34.10;21.20
50587;PMS7003;70782;50.514;30.816;2024-01-15T04:38:44;32.30;30.30;20.50
50587;PMS7003;70782;50.514;30.816;2024-01-15T04:39:46;34.30;33.70;21.30
50587;PMS7003;70782;50.514;30.816;2024-01-15T04:40:49;33.30;30.20;19.60
50587;PMS7003;70782;50.514;30.816;2024-01-15T04:41:51;36.56;34.11;22.78
50587;PMS7003;70782;50.514;30.816;2024-01-15T04:42:54;37.70;34.50;22.10
50587;PMS7003;70782;50.514;30.816;2024-01-15T04:43:56;35.73;34.36;20.82
50587;PMS7003;70782;50.514;30.816;2024-01-15T04:44:58;43.80;38.20;22.70
50587;PMS7003;70782;50.514;30.816;2024-01-15T04:46:01;42.64;39.00;24.82
50587;PMS7003;70782;50.514;30.816;2024-01-15T04:47:03;39.20;35.70;19.20
50587;PMS7003;70782;50.514;30.816;2024-01-15T04:48:06;41.20;36.90;22.40
50587;PMS7003;70782;50.514;30.816;2024-01-15T04:49:08;47.10;39.70;24.20
50587;PMS7003;70782;50.514;30.816;2024-01-15T04:50:12;39.70;32.70;21.70
50587;PMS7003;70782;50.514;30.816;2024-01-15T04:51:14;44.90;38.90;23.70
50587;PMS7003;70782;50.514;30.816;2024-01-15T04:52:16;47.90;41.20;25.90
50587;PMS7003;70782;50.514;30.816;2024-01-15T04:53:18;51.44;41.33;25.56
50587;PMS7003;70782;50.514;30.816;2024-01-15T04:54:21;54.80;44.20;28.10
50587;PMS7003;70782;50.514;30.816;2024-01-15T04:55:25;44.10;38.90;23.60
50587;PMS7003;70782;50.514;30.816;2024-01-15T04:56:29;43.50;39.00;23.60
50587;PMS7003;70782;50.514;30.816;2024-01-15T04:57:31;48.60;40.40;25.50
50587;PMS7003;70782;50.514;30.816;2024-01-15T04:58:33;41.40;37.50;24.80
50587;PMS7003;70782;50.514;30.816;2024-01-15T04:59:35;39.30;35.90;22.10
50587;PMS7003;70782;50.514;30.816;2024-01-15T05:00:38;35.10;32.00;19.90
50587;PMS7003;70782;50.514;30.816;2024-01-15T05:01:41;33.40;31.40;20.70
50587;PMS7003;70782;50.514;30.816;2024-01-15T05:02:43;33.90;28.90;18.10
50587;PMS7003;70782;50.514;30.816;2024-01-15T05:03:45;29.60;27.40;16.80
50587;PMS7003;70782;50.514;30.816;2024-01-15T05:04:48;18.80;13.30;3.40
50587;PMS7003;70782;50.514;30.816;2024-01-15T05:05:50;31.50;28.00;18.30
50587;PMS7003;70782;50.514;30.816;2024-01-15T05:06:53;23.30;22.30;15.80
50587;PMS7003;70782;50.514;30.816;2024-01-15T05:07:55;26.70;25.50;17.50
50587;PMS7003;70782;50.514;30.816;2024-01-15T05:08:58;27.90;25.50;15.60
50587;PMS7003;70782;50.514;30.816;2024-01-15T05:10:00;23.40;22.60;14.60
50587;PMS7003;70782;50.514;30.816;2024-01-15T05:11:02;27.00;25.10;15.50
50587;PMS7003;70782;50.514;30.816;2024-01-15T05:12:05;24.70;24.00;14.90
50587;PMS7003;70782;50.514;30.816;2024-01-15T05:13:08;23.70;22.40;14.50
50587;PMS7003;70782;50.514;30.816;2024-01-15T05:14:10;26.50;21.40;15.10
50587;PMS7003;70782;50.514;30.816;2024-01-15T05:15:12;25.60;23.70;15.00
50587;PMS7003;70782;50.514;30.816;2024-01-15T05:16:17;24.80;22.80;14.40
50587;PMS7003;70782;50.514;30.816;2024-01-15T05:17:19;27.50;23.50;15.10
50587;PMS7003;70782;50.514;30.816;2024-01-15T05:18:21;23.30;21.40;13.80
50587;PMS7003;70782;50.514;30.816;2024-01-15T05:19:23;20.10;19.90;14.90
50587;PMS7003;70782;50.514;30.816;2024-01-15T05:20:27;24.00;22.00;14.20
50587;PMS7003;70782;50.514;30.816;2024-01-15T05:21:29;23.40;22.90;15.50
50587;PMS7003;70782;50.514;30.816;2024-01-15T05:22:31;25.80;24.00;15.10
50587;PMS7003;70782;50.514;30.816;2024-01-15T05:23:34;24.80;22.80;15.60
50587;PMS7003;70782;50.514;30.816;2024-01-15T05:24:36;25.80;25.00;16.30
50587;PMS7003;70782;50.514;30.816;2024-01-15T05:25:39;29.20;24.50;15.60
50587;PMS7003;70782;50.514;30.816;2024-01-15T05:26:43;30.90;26.70;17.80
50587;PMS7003;70782;50.514;30.816;2024-01-15T05:27:45;29.60;26.10;16.60
50587;PMS7003;70782;50.514;30.816;2024-01-15T05:28:47;22.70;20.30;14.10
50587;PMS7003;70782;50.514;30.816;2024-01-15T05:29:49;25.60;21.60;14.70
50587;PMS7003;70782;50.514;30.816;2024-01-15T05:30:52;26.64;24.82;15.91
50587;PMS7003;70782;50.514;30.816;2024-01-15T05:31:55;26.00;20.40;15.80
50587;PMS7003;70782;50.514;30.816;2024-01-15T05:32:59;24.64;23.36;15.73
50587;PMS7003;70782;50.514;30.816;2024-01-15T05:34:01;28.90;25.70;18.70
50587;PMS7003;70782;50.514;30.816;2024-01-15T05:35:04;26.60;24.40;17.90
50587;PMS7003;70782;50.514;30.816;2024-01-15T05:36:07;25.90;24.60;15.90
50587;PMS7003;70782;50.514;30.816;2024-01-15T05:37:09;29.50;28.50;17.50
50587;PMS7003;70782;50.514;30.816;2024-01-15T05:38:11;27.60;24.50;15.90
50587;PMS7003;70782;50.514;30.816;2024-01-15T05:39:13;30.80;26.10;16.50
50587;PMS7003;70782;50.514;30.816;2024-01-15T05:40:16;25.30;24.40;16.20
50587;PMS7003;70782;50.514;30.816;2024-01-15T05:41:18;20.30;18.60;11.60
50587;PMS7003;70782;50.514;30.816;2024-01-15T05:42:20;29.30;26.80;16.60
50587;PMS7003;70782;50.514;30.816;2024-01-15T05:43:22;25.70;23.00;16.00
50587;PMS7003;70782;50.514;30.816;2024-01-15T05:44:25;31.70;25.60;17.00
50587;PMS7003;70782;50.514;30.816;2024-01-15T05:45:27;27.10;23.70;16.00